createdAt,value
2019-04-10T00:00:56.259Z,28.47
2019-04-10T00:03:27.875Z,27.87
2019-04-10T00:05:44.847Z,27.90
2019-04-10T00:08:08.290Z,29.40
2019-04-10T00:10:32.023Z,26.80
2019-04-10T00:12:56.176Z,25.20
2019-04-10T00:15:19.648Z,25.60
2019-04-10T00:17:43.075Z,24.67
2019-04-10T00:20:07.819Z,24.90
2019-04-10T00:22:31.326Z,26.77
2019-04-10T00:24:54.753Z,26.83
2019-04-10T00:27:18.663Z,26.43
2019-04-10T00:29:42.546Z,25.37
2019-04-10T00:32:05.982Z,23.73
2019-04-10T00:34:29.721Z,25.37
2019-04-10T00:36:53.381Z,25.70
2019-04-10T00:39:16.814Z,25.90
2019-04-10T00:41:40.694Z,24.67
2019-04-10T00:44:04.164Z,24.73
2019-04-10T00:46:28.330Z,26.00
2019-04-10T00:48:52.339Z,26.80
2019-04-10T00:51:15.806Z,24.43
2019-04-10T00:53:39.240Z,23.63
2019-04-10T00:56:02.709Z,23.52
2019-04-10T00:58:26.149Z,25.07
2019-04-10T01:00:50.318Z,24.50
2019-04-10T01:03:15.899Z,23.20
2019-04-10T01:05:39.656Z,23.57
2019-04-10T01:08:03.106Z,24.23
2019-04-10T01:10:26.561Z,22.90
2019-04-10T01:12:50.265Z,24.80
2019-04-10T01:15:14.186Z,23.30
2019-04-10T01:17:38.200Z,23.73
2019-04-10T01:20:01.790Z,22.20
2019-04-10T01:22:25.380Z,21.73
2019-04-10T01:24:48.778Z,22.83
2019-04-10T01:27:12.264Z,21.93
2019-04-10T01:29:35.720Z,23.70
2019-04-10T01:31:59.517Z,23.83
2019-04-10T01:34:22.991Z,23.60
2019-04-10T01:36:46.421Z,23.20
2019-04-10T01:39:11.524Z,22.10
2019-04-10T01:41:36.210Z,21.67
2019-04-10T01:43:59.704Z,21.53
2019-04-10T01:46:24.412Z,21.30
2019-04-10T01:48:47.836Z,23.03
2019-04-10T01:51:11.276Z,22.77
2019-04-10T01:53:35.616Z,24.83
2019-04-10T01:55:59.651Z,22.47
2019-04-10T01:58:23.823Z,22.40
2019-04-10T02:00:50.600Z,21.90
2019-04-10T02:03:14.067Z,22.03
2019-04-10T02:05:38.750Z,23.13
2019-04-10T02:08:08.598Z,24.13
2019-04-10T02:10:27.967Z,23.00
2019-04-10T02:12:51.459Z,24.07
2019-04-10T02:15:15.885Z,22.33
2019-04-10T02:17:39.383Z,23.57
2019-04-10T02:20:03.112Z,22.97
2019-04-10T02:22:26.668Z,22.47
2019-04-10T02:24:51.414Z,24.43
2019-04-10T02:27:14.884Z,22.00
2019-04-10T02:29:38.309Z,22.30
2019-04-10T02:32:02.158Z,21.68
2019-04-10T02:34:25.734Z,20.20
2019-04-10T02:36:50.660Z,21.83
2019-04-10T02:39:24.299Z,21.23
2019-04-10T02:41:39.522Z,22.27
2019-04-10T02:44:04.496Z,22.00
2019-04-10T02:46:29.274Z,22.70
2019-04-10T02:48:54.305Z,21.50
2019-04-10T02:51:17.846Z,20.50
2019-04-10T02:53:41.318Z,21.80
2019-04-10T02:56:05.382Z,21.10
2019-04-10T02:58:29.921Z,23.13
2019-04-10T03:00:54.827Z,19.57
2019-04-10T03:03:19.940Z,20.50
2019-04-10T03:05:44.771Z,20.87
2019-04-10T03:08:08.962Z,20.50
2019-04-10T03:10:41.292Z,21.80
2019-04-10T03:12:58.887Z,21.37
2019-04-10T03:15:25.040Z,21.15
2019-04-10T03:17:48.698Z,20.50
2019-04-10T03:20:12.366Z,21.43
2019-04-10T03:22:36.658Z,21.73
2019-04-10T03:25:00.352Z,20.67
2019-04-10T03:27:23.782Z,21.10
2019-04-10T03:29:48.410Z,22.07
2019-04-10T03:32:34.849Z,22.07
2019-04-10T03:34:56.682Z,21.93
2019-04-10T03:37:20.294Z,20.13
2019-04-10T03:39:43.756Z,20.17
2019-04-10T03:42:07.217Z,20.40
2019-04-10T03:44:30.816Z,20.73
2019-04-10T03:46:55.247Z,22.07
2019-04-10T03:49:19.912Z,23.70
2019-04-10T03:51:43.439Z,22.90
2019-04-10T03:54:06.948Z,22.53
2019-04-10T03:56:30.358Z,22.40
2019-04-10T03:58:54.078Z,21.63
2019-04-10T04:01:18.446Z,22.00
2019-04-10T04:03:42.683Z,21.53
2019-04-10T04:06:07.015Z,21.20
2019-04-10T04:08:30.566Z,20.97
2019-04-10T04:10:53.992Z,22.37
2019-04-10T04:13:17.548Z,22.20
2019-04-10T04:15:44.412Z,26.77
2019-04-10T04:18:08.865Z,24.57
2019-04-10T04:20:32.958Z,22.33
2019-04-10T04:22:57.050Z,24.07
2019-04-10T04:25:20.458Z,24.30
2019-04-10T04:27:44.188Z,22.90
2019-04-10T04:30:08.556Z,22.57
2019-04-10T04:32:32.253Z,26.20
2019-04-10T04:35:38.720Z,28.37
2019-04-10T04:38:02.570Z,26.77
2019-04-10T04:40:26.068Z,26.13
2019-04-10T04:42:52.364Z,25.27
2019-04-10T04:45:15.794Z,22.70
2019-04-10T04:47:39.233Z,23.37
2019-04-10T04:50:03.555Z,24.17
2019-04-10T04:52:27.906Z,23.80
2019-04-10T04:54:51.329Z,22.40
2019-04-10T04:57:14.991Z,23.95
2019-04-10T04:59:38.622Z,23.83
2019-04-10T05:02:02.004Z,22.50
2019-04-10T05:04:27.051Z,22.00
2019-04-10T05:06:52.082Z,21.77
2019-04-10T05:09:27.434Z,22.03
2019-04-10T05:11:40.736Z,24.00
2019-04-10T05:14:04.870Z,22.43
2019-04-10T05:16:28.424Z,22.83
2019-04-10T05:18:52.041Z,23.07
2019-04-10T05:21:17.098Z,22.17
2019-04-10T05:23:40.684Z,22.27
2019-04-10T05:26:04.140Z,22.10
2019-04-10T05:28:28.547Z,22.53
2019-04-10T05:30:52.735Z,22.65
2019-04-10T05:33:16.281Z,23.13
2019-04-10T05:35:39.929Z,23.87
2019-04-10T05:38:04.365Z,23.63
2019-04-10T05:40:28.098Z,21.87
2019-04-10T05:43:01.608Z,24.53
2019-04-10T05:45:26.322Z,24.03
2019-04-10T05:47:50.717Z,21.83
2019-04-10T05:50:21.526Z,21.83
2019-04-10T05:52:45.241Z,21.53
2019-04-10T05:55:08.822Z,22.73
2019-04-10T05:57:32.897Z,21.80
2019-04-10T05:59:56.825Z,22.87
2019-04-10T06:02:20.344Z,22.83
2019-04-10T06:04:43.769Z,22.63
2019-04-10T06:07:07.239Z,23.40
2019-04-10T06:09:31.167Z,22.23
2019-04-10T06:11:55.290Z,22.93
2019-04-10T06:14:18.857Z,22.77
2019-04-10T06:16:42.630Z,35.27
2019-04-10T06:19:07.292Z,28.37
2019-04-10T06:21:31.410Z,20.65
2019-04-10T06:23:56.679Z,18.30
2019-04-10T06:26:21.725Z,16.53
2019-04-10T06:28:46.405Z,16.90
2019-04-10T06:31:09.879Z,16.23
2019-04-10T06:33:34.026Z,15.83
2019-04-10T06:35:57.541Z,16.70
2019-04-10T06:38:21.062Z,18.27
2019-04-10T06:40:44.476Z,16.00
2019-04-10T06:43:08.611Z,14.20
2019-04-10T06:45:32.054Z,16.00
2019-04-10T06:47:55.556Z,14.67
2019-04-10T06:50:19.078Z,14.23
2019-04-10T06:52:42.979Z,15.23
2019-04-10T06:55:07.126Z,13.77
2019-04-10T06:57:30.577Z,13.90
2019-04-10T06:59:54.436Z,13.67
2019-04-10T07:02:25.543Z,12.98
2019-04-10T07:04:49.877Z,13.20
2019-04-10T07:07:12.404Z,12.73
2019-04-10T07:09:34.292Z,13.17
2019-04-10T07:12:00.963Z,12.83
2019-04-10T07:14:28.707Z,12.77
2019-04-10T07:16:52.726Z,12.43
2019-04-10T07:19:16.177Z,12.57
2019-04-10T07:21:42.648Z,12.17
2019-04-10T07:24:08.299Z,11.93
2019-04-10T07:26:39.361Z,13.03
2019-04-10T07:28:58.778Z,11.63
2019-04-10T07:31:23.400Z,11.70
2019-04-10T07:33:50.076Z,12.67
2019-04-10T07:36:14.001Z,12.17
2019-04-10T07:38:37.576Z,12.33
2019-04-10T07:41:01.017Z,12.17
2019-04-10T07:43:27.219Z,10.93
2019-04-10T07:45:50.772Z,11.87
2019-04-10T07:48:14.486Z,12.17
2019-04-10T07:50:38.991Z,12.57
2019-04-10T07:53:02.445Z,13.10
2019-04-10T07:55:25.867Z,11.87
2019-04-10T07:57:50.638Z,11.53
2019-04-10T08:00:16.147Z,13.47
2019-04-10T08:02:40.585Z,13.43
2019-04-10T08:05:05.717Z,12.87
2019-04-10T08:07:32.748Z,12.60
2019-04-10T08:09:54.552Z,13.03
2019-04-10T08:12:18.975Z,14.60
2019-04-10T08:14:42.413Z,13.07
2019-04-10T08:17:12.135Z,12.97
2019-04-10T08:19:37.007Z,12.00
2019-04-10T08:22:01.200Z,11.83
2019-04-10T08:24:25.722Z,12.23
2019-04-10T08:26:49.322Z,12.17
2019-04-10T08:29:16.007Z,11.93
2019-04-10T08:31:48.278Z,12.23
2019-04-10T08:34:12.073Z,12.17
2019-04-10T08:36:35.512Z,11.90
2019-04-10T08:38:59.211Z,13.70
2019-04-10T08:41:23.341Z,15.67
2019-04-10T08:43:48.118Z,14.70
2019-04-10T08:46:12.805Z,12.80
2019-04-10T08:48:36.394Z,12.77
2019-04-10T08:51:00.952Z,12.17
2019-04-10T08:53:24.468Z,12.80
2019-04-10T08:55:48.487Z,13.80
2019-04-10T08:58:11.935Z,12.90
2019-04-10T09:00:36.469Z,14.53
2019-04-10T09:03:00.338Z,16.30
2019-04-10T09:05:23.883Z,15.23
2019-04-10T09:07:48.467Z,15.20
2019-04-10T09:10:12.377Z,17.53
2019-04-10T09:12:38.868Z,16.97
2019-04-10T09:15:05.619Z,16.93
2019-04-10T09:17:29.123Z,17.63
2019-04-10T09:19:52.505Z,19.77
2019-04-10T09:22:16.221Z,19.27
2019-04-10T09:24:39.654Z,20.57
2019-04-10T09:27:03.117Z,20.33
2019-04-10T09:29:27.792Z,20.33
2019-04-10T09:31:51.378Z,20.73
2019-04-10T09:34:15.790Z,20.80
2019-04-10T09:36:39.647Z,23.13
2019-04-10T09:39:05.273Z,23.47
2019-04-10T09:41:30.008Z,23.77
2019-04-10T09:43:54.031Z,22.43
2019-04-10T09:46:18.195Z,24.77
2019-04-10T09:48:42.151Z,24.90
2019-04-10T09:51:05.659Z,24.47
2019-04-10T09:53:29.090Z,24.67
2019-04-10T09:55:52.538Z,24.37
2019-04-10T09:58:16.215Z,23.50
2019-04-10T10:00:40.254Z,23.83
2019-04-10T10:03:03.682Z,22.27
2019-04-10T10:05:27.165Z,22.00
2019-04-10T10:07:50.715Z,22.47
2019-04-10T10:10:15.074Z,24.00
2019-04-10T10:12:43.290Z,22.77
2019-04-10T10:15:09.482Z,23.03
2019-04-10T10:17:34.888Z,23.53
2019-04-10T10:19:59.458Z,23.63
2019-04-10T10:22:23.195Z,24.10
2019-04-10T10:24:46.846Z,23.70
2019-04-10T10:27:10.537Z,23.63
2019-04-10T10:29:34.211Z,22.00
2019-04-10T10:31:57.643Z,21.57
2019-04-10T10:34:21.095Z,22.53
2019-04-10T10:36:47.399Z,21.90
2019-04-10T10:39:14.213Z,22.27
2019-04-10T10:41:40.662Z,21.30
2019-04-10T10:44:04.818Z,21.17
2019-04-10T10:46:28.376Z,22.10
2019-04-10T10:48:52.027Z,21.10
2019-04-10T10:51:15.489Z,20.33
2019-04-10T10:53:38.957Z,20.47
2019-04-10T10:56:02.383Z,20.17
2019-04-10T10:58:26.054Z,20.90
2019-04-10T11:00:50.133Z,21.57
2019-04-10T11:03:14.520Z,21.40
2019-04-10T11:05:41.042Z,22.13
2019-04-10T11:08:05.367Z,20.83
2019-04-10T11:10:30.076Z,20.83
2019-04-10T11:12:55.211Z,20.33
2019-04-10T11:15:18.743Z,18.55
2019-04-10T11:17:53.803Z,19.43
2019-04-10T11:20:19.830Z,18.57
2019-04-10T11:22:44.696Z,17.83
2019-04-10T11:25:08.654Z,18.37
2019-04-10T11:27:32.170Z,17.80
2019-04-10T11:29:55.586Z,18.83
2019-04-10T11:32:19.897Z,17.33
2019-04-10T11:34:43.429Z,17.07
2019-04-10T11:39:35.122Z,15.63
2019-04-10T11:42:04.659Z,15.73
2019-04-10T11:44:29.796Z,14.50
2019-04-10T11:46:55.579Z,14.90
2019-04-10T11:49:20.147Z,14.27
2019-04-10T11:51:48.272Z,14.43
2019-04-10T11:54:14.613Z,13.47
2019-04-10T11:56:38.359Z,13.87
2019-04-10T11:59:04.426Z,14.47
2019-04-10T12:01:28.065Z,14.43
2019-04-10T12:03:56.274Z,13.67
2019-04-10T12:06:20.554Z,13.27
2019-04-10T12:09:08.247Z,13.00
2019-04-10T12:11:11.005Z,13.70
2019-04-10T12:13:32.889Z,14.20
2019-04-10T12:15:56.699Z,15.03
2019-04-10T12:18:20.144Z,15.60
2019-04-10T12:20:43.579Z,14.57
2019-04-10T12:23:08.370Z,15.17
2019-04-10T12:25:32.164Z,13.73
2019-04-10T12:27:55.783Z,14.57
2019-04-10T12:30:20.371Z,14.37
2019-04-10T12:32:45.957Z,14.37
2019-04-10T12:35:10.955Z,14.00
2019-04-10T12:37:35.016Z,14.43
2019-04-10T12:39:58.443Z,15.43
2019-04-10T12:42:22.144Z,14.70
2019-04-10T12:44:45.608Z,14.57
2019-04-10T12:47:09.954Z,14.13
2019-04-10T12:49:33.899Z,14.20
2019-04-10T12:51:58.332Z,13.40
2019-04-10T12:54:21.818Z,14.50
2019-04-10T12:56:46.320Z,13.47
2019-04-10T12:59:10.986Z,13.97
2019-04-10T13:01:34.589Z,13.32
2019-04-10T13:03:59.872Z,13.50
2019-04-10T13:06:24.198Z,13.45
2019-04-10T13:08:57.882Z,13.28
2019-04-10T13:11:12.835Z,12.85
2019-04-10T13:13:36.264Z,12.68
2019-04-10T13:15:59.725Z,12.05
2019-04-10T13:18:23.151Z,11.95
2019-04-10T13:20:47.047Z,11.88
2019-04-10T13:23:13.866Z,11.43
2019-04-10T13:25:36.809Z,11.50
2019-04-10T13:28:03.363Z,11.18
2019-04-10T13:30:27.137Z,10.95
2019-04-10T13:32:50.585Z,11.18
2019-04-10T13:35:15.700Z,10.83
2019-04-10T13:37:39.498Z,10.43
2019-04-10T13:40:03.538Z,10.90
2019-04-10T13:42:27.306Z,10.30
2019-04-10T13:44:50.853Z,10.10
2019-04-10T13:47:15.235Z,10.45
2019-04-10T13:49:38.926Z,10.30
2019-04-10T13:52:03.589Z,10.30
2019-04-10T13:54:27.103Z,10.30
2019-04-10T13:56:50.567Z,10.10
2019-04-10T13:59:15.219Z,10.40
2019-04-10T14:01:39.679Z,9.13
2019-04-10T14:04:03.263Z,9.13
2019-04-10T14:06:27.488Z,9.63
2019-04-10T14:09:07.930Z,9.57
2019-04-10T14:11:17.411Z,9.30
2019-04-10T14:13:42.079Z,9.57
2019-04-10T14:16:06.509Z,8.97
2019-04-10T14:18:29.932Z,8.50
2019-04-10T14:20:53.523Z,8.97
2019-04-10T14:23:18.540Z,9.30
2019-04-10T14:25:46.588Z,8.67
2019-04-10T14:28:11.185Z,8.97
2019-04-10T14:30:43.230Z,9.13
2019-04-10T14:33:07.177Z,8.83
2019-04-10T14:35:31.473Z,9.10
2019-04-10T14:37:54.906Z,9.77
2019-04-10T14:40:18.436Z,9.10
2019-04-10T14:42:42.489Z,9.10
2019-04-10T14:45:07.431Z,8.90
2019-04-10T14:47:31.783Z,8.17
2019-04-10T14:49:56.506Z,8.57
2019-04-10T14:52:21.028Z,10.07
2019-04-10T14:54:44.482Z,8.60
2019-04-10T14:57:07.947Z,8.80
2019-04-10T14:59:31.844Z,9.57
2019-04-10T15:01:55.281Z,8.80
2019-04-10T15:04:19.312Z,8.43
2019-04-10T15:06:43.748Z,10.60
2019-04-10T15:09:20.825Z,9.90
2019-04-10T15:11:35.440Z,9.40
2019-04-10T15:13:59.182Z,10.13
2019-04-10T15:16:23.095Z,9.30
2019-04-10T15:18:47.756Z,9.87
2019-04-10T15:21:12.337Z,9.40
2019-04-10T15:23:36.095Z,9.50
2019-04-10T15:25:59.685Z,9.87
2019-04-10T15:28:23.298Z,9.30
2019-04-10T15:30:46.722Z,9.33
2019-04-10T15:33:10.763Z,9.30
2019-04-10T15:35:34.859Z,9.30
2019-04-10T15:37:58.360Z,8.93
2019-04-10T15:40:25.541Z,8.85
2019-04-10T15:42:48.143Z,9.07
2019-04-10T15:45:12.841Z,8.90
2019-04-10T15:47:37.376Z,8.77
2019-04-10T15:50:02.062Z,9.80
2019-04-10T15:52:25.603Z,8.60
2019-04-10T15:54:50.306Z,8.27
2019-04-10T15:57:14.304Z,8.00
2019-04-10T15:59:38.548Z,8.23
2019-04-10T16:02:02.186Z,9.47
2019-04-10T16:04:25.627Z,8.80
2019-04-10T16:06:49.437Z,9.43
2019-04-10T16:09:14.900Z,9.67
2019-04-10T16:11:39.989Z,8.80
2019-04-10T16:14:16.852Z,9.43
2019-04-10T16:16:34.367Z,9.20
2019-04-10T16:19:14.515Z,10.07
2019-04-10T16:21:38.060Z,12.00
2019-04-10T16:24:09.116Z,9.30
2019-04-10T16:26:33.540Z,8.33
2019-04-10T16:28:57.790Z,8.27
2019-04-10T16:31:21.546Z,8.83
2019-04-10T16:33:45.173Z,8.53
2019-04-10T16:36:08.604Z,8.30
2019-04-10T16:38:32.990Z,8.73
2019-04-10T16:40:56.495Z,8.90
2019-04-10T16:43:20.222Z,9.03
2019-04-10T16:45:43.651Z,8.47
2019-04-10T16:48:07.078Z,9.00
2019-04-10T16:50:30.024Z,8.60
2019-04-10T16:52:53.638Z,8.63
2019-04-10T16:55:17.860Z,8.50
2019-04-10T16:57:41.334Z,8.90
2019-04-10T17:00:06.974Z,8.67
2019-04-10T17:02:30.378Z,8.80
2019-04-10T17:04:54.181Z,8.80
2019-04-10T17:07:17.656Z,8.70
2019-04-10T17:09:41.097Z,7.90
2019-04-10T17:12:06.268Z,8.40
2019-04-10T17:14:29.713Z,8.40
2019-04-10T17:16:53.644Z,9.07
2019-04-10T17:19:17.323Z,8.60
2019-04-10T17:21:40.858Z,9.73
2019-04-10T17:24:05.095Z,9.23
2019-04-10T17:26:28.685Z,9.77
2019-04-10T17:28:52.491Z,10.90
2019-04-10T17:31:16.218Z,10.43
2019-04-10T17:33:39.781Z,9.90
2019-04-10T17:36:04.259Z,9.83
2019-04-10T17:38:28.817Z,10.13
2019-04-10T17:40:55.584Z,10.17
2019-04-10T17:43:18.934Z,10.90
2019-04-10T17:45:42.854Z,10.43
2019-04-10T17:48:06.334Z,10.33
2019-04-10T17:50:30.137Z,10.97
2019-04-10T17:52:53.608Z,10.27
2019-04-10T17:55:17.613Z,9.50
2019-04-10T17:57:43.361Z,10.90
2019-04-10T18:00:23.075Z,10.33
2019-04-10T18:02:46.788Z,12.20
2019-04-10T18:05:10.586Z,11.07
2019-04-10T18:07:34.351Z,10.50
2019-04-10T18:09:58.190Z,11.17
2019-04-10T18:12:21.700Z,13.73
2019-04-10T18:14:45.111Z,21.33
2019-04-10T18:17:09.002Z,17.70
2019-04-10T18:19:32.537Z,14.87
2019-04-10T18:21:56.356Z,13.17
2019-04-10T18:24:20.034Z,13.20
2019-04-10T18:26:43.709Z,11.23
2019-04-10T18:29:07.870Z,11.33
2019-04-10T18:31:31.261Z,10.53
2019-04-10T18:33:55.220Z,11.33
2019-04-10T18:36:22.171Z,11.07
2019-04-10T18:38:44.495Z,12.40
2019-04-10T18:41:09.086Z,12.47
2019-04-10T18:43:32.565Z,12.40
2019-04-10T18:46:06.194Z,12.37
2019-04-10T18:48:21.154Z,12.17
2019-04-10T18:50:45.452Z,11.80
2019-04-10T18:53:08.905Z,12.40
2019-04-10T18:55:32.333Z,12.13
2019-04-10T18:57:56.868Z,12.13
2019-04-10T19:00:36.871Z,12.70
2019-04-10T19:03:05.455Z,16.00
2019-04-10T19:05:33.987Z,14.40
2019-04-10T19:07:58.632Z,13.77
2019-04-10T19:10:22.210Z,14.23
2019-04-10T19:12:45.584Z,16.53
2019-04-10T19:15:09.277Z,16.23
2019-04-10T19:17:33.254Z,14.93
2019-04-10T19:19:56.890Z,13.53
2019-04-10T19:22:20.439Z,12.90
2019-04-10T19:24:44.207Z,13.23
2019-04-10T19:27:07.693Z,14.77
2019-04-10T19:29:31.789Z,14.00
2019-04-10T19:31:56.862Z,13.37
2019-04-10T19:34:21.237Z,13.70
2019-04-10T19:36:44.836Z,13.63
2019-04-10T19:39:09.758Z,13.30
2019-04-10T19:41:37.826Z,12.63
2019-04-10T19:43:58.910Z,13.37
2019-04-10T19:46:23.733Z,12.70
2019-04-10T19:48:50.187Z,13.10
2019-04-10T19:51:12.458Z,12.70
2019-04-10T19:53:35.882Z,13.13
2019-04-10T19:56:00.280Z,13.73
2019-04-10T19:58:23.953Z,13.90
2019-04-10T20:00:48.782Z,14.60
2019-04-10T20:03:13.257Z,13.20
2019-04-10T20:05:37.284Z,12.83
2019-04-10T20:08:01.653Z,13.70
2019-04-10T20:10:25.444Z,13.97
2019-04-10T20:12:48.909Z,13.47
2019-04-10T20:15:12.442Z,13.83
2019-04-10T20:17:36.157Z,13.87
2019-04-10T20:19:59.911Z,13.63
2019-04-10T20:22:23.424Z,14.10
2019-04-10T20:24:47.210Z,13.80
2019-04-10T20:27:11.902Z,14.40
2019-04-10T20:29:35.403Z,13.37
2019-04-10T20:31:59.238Z,14.33
2019-04-10T20:34:23.266Z,14.20
2019-04-10T20:36:47.059Z,14.30
2019-04-10T20:39:12.866Z,13.80
2019-04-10T20:41:47.576Z,15.07
2019-04-10T20:44:03.650Z,14.07
2019-04-10T20:46:28.412Z,13.83
2019-04-10T20:48:52.930Z,13.87
2019-04-10T20:51:16.603Z,14.60
2019-04-10T20:53:40.273Z,15.10
2019-04-10T20:56:03.714Z,13.90
2019-04-10T20:58:27.456Z,14.07
2019-04-10T21:00:51.430Z,15.68
2019-04-10T21:03:15.527Z,15.60
2019-04-10T21:05:40.107Z,14.83
2019-04-10T21:08:04.181Z,13.77
2019-04-10T21:10:27.635Z,14.47
2019-04-10T21:12:51.058Z,14.17
2019-04-10T21:15:14.778Z,14.07
2019-04-10T21:17:38.232Z,13.63
2019-04-10T21:20:02.336Z,13.93
2019-04-10T21:22:26.504Z,13.93
2019-04-10T21:24:49.965Z,13.93
2019-04-10T21:27:13.379Z,13.53
2019-04-10T21:29:54.830Z,13.07
2019-04-10T21:32:28.804Z,13.07
2019-04-10T21:34:53.443Z,13.90
2019-04-10T21:37:17.904Z,13.87
2019-04-10T21:39:41.605Z,13.17
2019-04-10T21:42:15.634Z,13.27
2019-04-10T21:44:30.996Z,13.97
2019-04-10T21:46:55.091Z,13.63
2019-04-10T21:49:18.522Z,13.20
2019-04-10T21:51:42.846Z,13.20
2019-04-10T21:54:06.423Z,13.03
2019-04-10T21:56:30.948Z,13.10
2019-04-10T21:58:54.857Z,12.67
2019-04-10T22:01:18.620Z,12.63
2019-04-10T22:03:42.041Z,12.67
2019-04-10T22:06:13.603Z,12.53
2019-04-10T22:08:39.355Z,13.40
2019-04-10T22:11:02.822Z,12.90
2019-04-10T22:13:26.235Z,12.20
2019-04-10T22:15:49.659Z,12.37
2019-04-10T22:18:13.136Z,12.57
2019-04-10T22:20:36.556Z,13.13
2019-04-10T22:23:00.044Z,13.97
2019-04-10T22:25:23.636Z,14.40
2019-04-10T22:27:47.778Z,12.80
2019-04-10T22:30:12.495Z,12.97
2019-04-10T22:32:35.896Z,13.97
2019-04-10T22:34:59.315Z,15.27
2019-04-10T22:37:23.664Z,14.53
2019-04-10T22:39:48.146Z,14.03
2019-04-10T22:42:12.889Z,14.43
2019-04-10T22:44:42.546Z,15.43
2019-04-10T22:47:02.911Z,14.50
2019-04-10T22:49:26.601Z,15.23
2019-04-10T22:51:50.078Z,14.40
2019-04-10T22:54:14.572Z,13.93
2019-04-10T22:56:38.122Z,13.77
2019-04-10T22:59:01.760Z,13.73
2019-04-10T23:01:25.179Z,14.23
2019-04-10T23:03:49.414Z,14.00
2019-04-10T23:06:13.261Z,13.57
2019-04-10T23:08:37.879Z,14.33
2019-04-10T23:11:01.525Z,13.53
2019-04-10T23:13:25.873Z,13.97
2019-04-10T23:15:49.491Z,15.10
2019-04-10T23:18:13.117Z,14.90
2019-04-10T23:20:36.581Z,14.87
2019-04-10T23:23:01.005Z,15.20
2019-04-10T23:25:24.760Z,14.37
2019-04-10T23:27:48.273Z,13.93
2019-04-10T23:30:17.203Z,13.77
2019-04-10T23:32:41.640Z,16.30
2019-04-10T23:35:06.023Z,16.23
2019-04-10T23:37:29.514Z,15.50
2019-04-10T23:39:52.954Z,14.53
2019-04-10T23:42:16.379Z,14.60
2019-04-10T23:44:40.789Z,14.30
2019-04-10T23:47:04.235Z,14.10
2019-04-10T23:49:27.746Z,14.80
2019-04-10T23:51:51.666Z,14.17
2019-04-10T23:54:15.243Z,13.93
2019-04-10T23:56:39.854Z,13.57
2019-04-10T23:59:04.472Z,13.43
